Terminal Aerodrome Forecast
Issued by NWS Blacksburg, VA

Current Version | Previous Version | Graphics & Text | Print | Product List | Glossary On
Versions: 1 2 3 4 5 6 7 8 9 10 11 12 13 14 15 16 17 18 19 20 21 22 23 24 25 26 27 28 29 30 31 32 33 34
000
FTUS41 KRNK 091911 AAA
TAFBLF
TAF AMD
KBLF 091911Z 0919/1018 27008KT P6SM SCT035 BKN060
     FM100300 24003KT 4SM BR OVC025
     FM100900 VRB03KT 2SM BR BKN007
     FM101400 VRB03KT P6SM SCT015 BKN100=

USA.gov is the U.S. government's official web portal to all federal, state and local government web resources and services.